# Tabular Observed and Forecast Hydrograph Information
#
# Location: Truckee River - Below Derby Dam (TBDN2)
#
# File Generation Time: 09/06/2026 at 06:58 AM PDT
# Data Interval: 1 Hour
#
# Most Recent Date & Time of Maximum Observed: 09/05/2026 at 05:00 PM PDT
# Maximum Observed Stage: 2.67 Feet
# Maximum Observed Flow: 275 cfs
#
# Earliest Date & Time of Maximum Forecast: 09/07/2026 at 02:00 PM PDT
# Maximum Forecast Stage: 2.68 Feet
# Maximum Forecast Flow: 278 cfs
#
# OBSERVED
#
# Date & Time (Local) Stage (Feet) Flow (cfs) Trend Observed Status
# ---------------------------------------------------------------------------------
09/01/2026 06 AM PDT 2.53 237 Normal
09/01/2026 07 AM PDT 2.51 232 - Normal
09/01/2026 08 AM PDT 2.51 232 0 Normal
09/01/2026 09 AM PDT 2.57 248 + Normal
09/01/2026 10 AM PDT 2.61 258 + Normal
09/01/2026 11 AM PDT 2.60 256 - Normal
09/01/2026 12 PM PDT 2.59 253 - Normal
09/01/2026 01 PM PDT 2.57 248 - Normal
09/01/2026 02 PM PDT 2.56 245 - Normal
09/01/2026 03 PM PDT 2.51 232 - Normal
09/01/2026 04 PM PDT 2.51 232 0 Normal
09/01/2026 05 PM PDT 2.45 217 - Normal
09/01/2026 06 PM PDT 2.45 217 0 Normal
09/01/2026 07 PM PDT 2.47 222 + Normal
09/01/2026 08 PM PDT 2.46 220 - Normal
09/01/2026 09 PM PDT 2.46 220 0 Normal
09/01/2026 10 PM PDT 2.45 217 - Normal
09/01/2026 11 PM PDT 2.44 215 - Normal
09/02/2026 12 AM PDT 2.47 222 + Normal
09/02/2026 01 AM PDT 2.46 220 - Normal
09/02/2026 02 AM PDT 2.50 230 + Normal
09/02/2026 03 AM PDT 2.51 232 + Normal
09/02/2026 04 AM PDT 2.51 232 0 Normal
09/02/2026 05 AM PDT 2.48 225 - Normal
09/02/2026 06 AM PDT 2.47 222 - Normal
09/02/2026 07 AM PDT 2.48 225 + Normal
09/02/2026 08 AM PDT 2.48 225 0 Normal
09/02/2026 09 AM PDT 2.49 227 + Normal
09/02/2026 10 AM PDT 2.50 230 + Normal
09/02/2026 11 AM PDT 2.50 230 0 Normal
09/02/2026 12 PM PDT 2.50 230 0 Normal
09/02/2026 01 PM PDT 2.53 237 + Normal
09/02/2026 02 PM PDT 2.46 220 - Normal
09/02/2026 03 PM PDT 2.50 230 + Normal
09/02/2026 04 PM PDT 2.50 230 0 Normal
09/02/2026 05 PM PDT 2.47 222 - Normal
09/02/2026 06 PM PDT 2.47 222 0 Normal
09/02/2026 07 PM PDT 2.44 215 - Normal
09/02/2026 08 PM PDT 2.46 220 + Normal
09/02/2026 09 PM PDT 2.48 225 + Normal
09/02/2026 10 PM PDT 2.46 220 - Normal
09/02/2026 11 PM PDT 2.47 222 + Normal
09/03/2026 12 AM PDT 2.51 232 + Normal
09/03/2026 01 AM PDT 2.50 230 - Normal
09/03/2026 02 AM PDT 2.50 230 0 Normal
09/03/2026 03 AM PDT 2.49 227 - Normal
09/03/2026 04 AM PDT 2.52 235 + Normal
09/03/2026 05 AM PDT 2.54 240 + Normal
09/03/2026 06 AM PDT 2.51 232 - Normal
09/03/2026 07 AM PDT 2.49 227 - Normal
09/03/2026 08 AM PDT 2.51 232 + Normal
09/03/2026 09 AM PDT 2.50 230 - Normal
09/03/2026 10 AM PDT 2.48 225 - Normal
09/03/2026 11 AM PDT 2.47 222 - Normal
09/03/2026 12 PM PDT 2.52 235 + Normal
09/03/2026 01 PM PDT 2.46 220 - Normal
09/03/2026 02 PM PDT 2.54 240 + Normal
09/03/2026 03 PM PDT 2.49 227 - Normal
09/03/2026 04 PM PDT 2.56 245 + Normal
09/03/2026 05 PM PDT 2.49 227 - Normal
09/03/2026 06 PM PDT 2.49 227 0 Normal
09/03/2026 07 PM PDT 2.50 230 + Normal
09/03/2026 08 PM PDT 2.49 227 - Normal
09/03/2026 09 PM PDT 2.52 235 + Normal
09/03/2026 10 PM PDT 2.51 232 - Normal
09/03/2026 11 PM PDT 2.53 237 + Normal
09/04/2026 12 AM PDT 2.56 245 + Normal
09/04/2026 01 AM PDT 2.54 240 - Normal
09/04/2026 02 AM PDT 2.51 232 - Normal
09/04/2026 03 AM PDT 2.54 240 + Normal
09/04/2026 04 AM PDT 2.55 242 + Normal
09/04/2026 05 AM PDT 2.52 235 - Normal
09/04/2026 06 AM PDT 2.53 237 + Normal
09/04/2026 07 AM PDT 2.51 232 - Normal
09/04/2026 08 AM PDT 2.52 235 + Normal
09/04/2026 09 AM PDT 2.53 237 + Normal
09/04/2026 10 AM PDT 2.54 240 + Normal
09/04/2026 11 AM PDT 2.54 240 0 Normal
09/04/2026 12 PM PDT 2.57 248 + Normal
09/04/2026 01 PM PDT 2.58 250 + Normal
09/04/2026 02 PM PDT 2.55 242 - Normal
09/04/2026 03 PM PDT 2.55 242 0 Normal
09/04/2026 04 PM PDT 2.54 240 - Normal
09/04/2026 05 PM PDT 2.56 245 + Normal
09/04/2026 06 PM PDT 2.58 250 + Normal
09/04/2026 07 PM PDT 2.53 237 - Normal
09/04/2026 08 PM PDT 2.54 240 + Normal
09/04/2026 09 PM PDT 2.54 240 0 Normal
09/04/2026 10 PM PDT 2.54 240 0 Normal
09/04/2026 11 PM PDT 2.55 242 + Normal
09/05/2026 12 AM PDT 2.57 248 + Normal
09/05/2026 01 AM PDT 2.57 248 0 Normal
09/05/2026 02 AM PDT 2.58 250 + Normal
09/05/2026 03 AM PDT 2.59 253 + Normal
09/05/2026 04 AM PDT 2.62 261 + Normal
09/05/2026 05 AM PDT 2.60 256 - Normal
09/05/2026 06 AM PDT 2.61 258 + Normal
09/05/2026 07 AM PDT 2.60 256 - Normal
09/05/2026 08 AM PDT 2.60 256 0 Normal
09/05/2026 09 AM PDT 2.60 256 0 Normal
09/05/2026 10 AM PDT 2.60 256 0 Normal
09/05/2026 11 AM PDT 2.64 267 + Normal
09/05/2026 12 PM PDT 2.63 264 - Normal
09/05/2026 01 PM PDT 2.65 269 + Normal
09/05/2026 02 PM PDT 2.63 264 - Normal
09/05/2026 03 PM PDT 2.62 261 - Normal
09/05/2026 04 PM PDT 2.63 264 + Normal
09/05/2026 05 PM PDT 2.67 275 + Normal
09/05/2026 06 PM PDT 2.66 272 - Normal
09/05/2026 07 PM PDT 2.63 264 - Normal
09/05/2026 08 PM PDT 2.61 258 - Normal
09/05/2026 09 PM PDT 2.65 269 + Normal
09/05/2026 10 PM PDT 2.62 261 - Normal
09/05/2026 11 PM PDT 2.63 264 + Normal
09/06/2026 12 AM PDT 2.63 264 0 Normal
09/06/2026 01 AM PDT 2.62 261 - Normal
09/06/2026 02 AM PDT 2.63 264 + Normal
09/06/2026 03 AM PDT 2.64 267 + Normal
09/06/2026 04 AM PDT 2.64 267 0 Normal
09/06/2026 05 AM PDT 2.64 267 0 Normal
09/06/2026 06 AM PDT 2.65 269 + Normal
#
# FORECAST
#
# Date & Time (Local) Stage (Feet) Flow (cfs) Trend Forecast Status
# ---------------------------------------------------------------------------------
09/06/2026 07 AM PDT 2.64 267 Normal
09/06/2026 08 AM PDT 2.64 267 0 Normal
09/06/2026 09 AM PDT 2.63 264 - Normal
09/06/2026 10 AM PDT 2.62 261 - Normal
09/06/2026 11 AM PDT 2.62 261 0 Normal
09/06/2026 12 PM PDT 2.63 264 + Normal
09/06/2026 01 PM PDT 2.63 264 0 Normal
09/06/2026 02 PM PDT 2.63 264 0 Normal
09/06/2026 03 PM PDT 2.63 264 0 Normal
09/06/2026 04 PM PDT 2.63 264 0 Normal
09/06/2026 05 PM PDT 2.62 261 - Normal
09/06/2026 06 PM PDT 2.61 258 - Normal
09/06/2026 07 PM PDT 2.60 256 - Normal
09/06/2026 08 PM PDT 2.60 256 0 Normal
09/06/2026 09 PM PDT 2.60 256 0 Normal
09/06/2026 10 PM PDT 2.60 256 0 Normal
09/06/2026 11 PM PDT 2.60 256 0 Normal
09/07/2026 12 AM PDT 2.61 258 + Normal
09/07/2026 01 AM PDT 2.61 258 0 Normal
09/07/2026 02 AM PDT 2.62 261 + Normal
09/07/2026 03 AM PDT 2.62 261 0 Normal
09/07/2026 04 AM PDT 2.62 261 0 Normal
09/07/2026 05 AM PDT 2.62 261 0 Normal
09/07/2026 06 AM PDT 2.62 261 0 Normal
09/07/2026 07 AM PDT 2.62 261 0 Normal
09/07/2026 08 AM PDT 2.63 264 + Normal
09/07/2026 09 AM PDT 2.64 267 + Normal
09/07/2026 10 AM PDT 2.65 269 + Normal
09/07/2026 11 AM PDT 2.66 272 + Normal
09/07/2026 12 PM PDT 2.67 275 + Normal
09/07/2026 01 PM PDT 2.67 275 0 Normal
09/07/2026 02 PM PDT 2.68 278 + Normal
09/07/2026 03 PM PDT 2.68 278 0 Normal
09/07/2026 04 PM PDT 2.68 278 0 Normal
09/07/2026 05 PM PDT 2.68 278 0 Normal
09/07/2026 06 PM PDT 2.68 278 0 Normal
09/07/2026 07 PM PDT 2.68 278 0 Normal
09/07/2026 08 PM PDT 2.68 278 0 Normal
09/07/2026 09 PM PDT 2.68 278 0 Normal
09/07/2026 10 PM PDT 2.68 278 0 Normal
09/07/2026 11 PM PDT 2.68 278 0 Normal
09/08/2026 12 AM PDT 2.68 278 0 Normal
09/08/2026 01 AM PDT 2.68 278 0 Normal
09/08/2026 02 AM PDT 2.68 278 0 Normal
09/08/2026 03 AM PDT 2.68 278 0 Normal
09/08/2026 04 AM PDT 2.68 278 0 Normal
09/08/2026 05 AM PDT 2.68 278 0 Normal
09/08/2026 06 AM PDT 2.68 278 0 Normal
09/08/2026 07 AM PDT 2.68 278 0 Normal
09/08/2026 08 AM PDT 2.68 278 0 Normal
09/08/2026 09 AM PDT 2.68 278 0 Normal
09/08/2026 10 AM PDT 2.67 275 - Normal
09/08/2026 11 AM PDT 2.67 275 0 Normal
09/08/2026 12 PM PDT 2.67 275 0 Normal
09/08/2026 01 PM PDT 2.67 275 0 Normal
09/08/2026 02 PM PDT 2.67 275 0 Normal
09/08/2026 03 PM PDT 2.67 275 0 Normal
09/08/2026 04 PM PDT 2.67 275 0 Normal
09/08/2026 05 PM PDT 2.67 275 0 Normal
09/08/2026 06 PM PDT 2.67 275 0 Normal
09/08/2026 07 PM PDT 2.67 275 0 Normal
09/08/2026 08 PM PDT 2.67 275 0 Normal
09/08/2026 09 PM PDT 2.67 275 0 Normal
09/08/2026 10 PM PDT 2.67 275 0 Normal
09/08/2026 11 PM PDT 2.67 275 0 Normal
09/09/2026 12 AM PDT 2.67 275 0 Normal
09/09/2026 01 AM PDT 2.67 275 0 Normal
09/09/2026 02 AM PDT 2.67 275 0 Normal
09/09/2026 03 AM PDT 2.67 275 0 Normal
09/09/2026 04 AM PDT 2.67 275 0 Normal
09/09/2026 05 AM PDT 2.67 275 0 Normal
09/09/2026 06 AM PDT 2.66 272 - Normal
09/09/2026 07 AM PDT 2.66 272 0 Normal
09/09/2026 08 AM PDT 2.66 272 0 Normal
09/09/2026 09 AM PDT 2.66 272 0 Normal
09/09/2026 10 AM PDT 2.66 272 0 Normal
09/09/2026 11 AM PDT 2.66 272 0 Normal
09/09/2026 12 PM PDT 2.66 272 0 Normal
09/09/2026 01 PM PDT 2.66 272 0 Normal
09/09/2026 02 PM PDT 2.66 272 0 Normal
09/09/2026 03 PM PDT 2.66 272 0 Normal
09/09/2026 04 PM PDT 2.66 272 0 Normal
09/09/2026 05 PM PDT 2.66 272 0 Normal
09/09/2026 06 PM PDT 2.66 272 0 Normal
09/09/2026 07 PM PDT 2.66 272 0 Normal
09/09/2026 08 PM PDT 2.66 272 0 Normal
09/09/2026 09 PM PDT 2.66 272 0 Normal
09/09/2026 10 PM PDT 2.65 269 - Normal
09/09/2026 11 PM PDT 2.65 269 0 Normal
09/10/2026 12 AM PDT 2.65 269 0 Normal
09/10/2026 01 AM PDT 2.65 269 0 Normal
09/10/2026 02 AM PDT 2.65 269 0 Normal
09/10/2026 03 AM PDT 2.65 269 0 Normal
09/10/2026 04 AM PDT 2.65 269 0 Normal
09/10/2026 05 AM PDT 2.65 269 0 Normal
09/10/2026 06 AM PDT 2.65 269 0 Normal
09/10/2026 07 AM PDT 2.65 269 0 Normal
09/10/2026 08 AM PDT 2.65 269 0 Normal
09/10/2026 09 AM PDT 2.65 269 0 Normal
09/10/2026 10 AM PDT 2.65 269 0 Normal
09/10/2026 11 AM PDT 2.65 269 0 Normal
09/10/2026 12 PM PDT 2.65 269 0 Normal
09/10/2026 01 PM PDT 2.65 269 0 Normal
09/10/2026 02 PM PDT 2.65 269 0 Normal
09/10/2026 03 PM PDT 2.65 269 0 Normal
09/10/2026 04 PM PDT 2.64 267 - Normal
09/10/2026 05 PM PDT 2.64 267 0 Normal
09/10/2026 06 PM PDT 2.64 267 0 Normal
09/10/2026 07 PM PDT 2.64 267 0 Normal
09/10/2026 08 PM PDT 2.64 267 0 Normal
09/10/2026 09 PM PDT 2.64 267 0 Normal
09/10/2026 10 PM PDT 2.64 267 0 Normal
09/10/2026 11 PM PDT 2.64 267 0 Normal
09/11/2026 12 AM PDT 2.64 267 0 Normal
09/11/2026 01 AM PDT 2.64 267 0 Normal
09/11/2026 02 AM PDT 2.64 267 0 Normal
09/11/2026 03 AM PDT 2.64 267 0 Normal
09/11/2026 04 AM PDT 2.64 267 0 Normal
09/11/2026 05 AM PDT 2.64 267 0 Normal
#
# NOTE 1: Stages are rounded to the nearest hundredth (.01) of a foot.
# NOTE 2: Flows are rounded to the nearest (1) cfs.
# NOTE 3: Trends are determined using hourly change in unrounded stage and flow.
# NOTE 4: Maximum Values are determined using unrounded stage and flow.
|